This is the latest recevied weather packets stored in our database for station/object KO4ZGL-13. If no packets are shown the sender has not sent any weather packets the latest 10 day(s).
| Time | Temp. | Humidity | Pressure | Rain* | Wind** | Luminosity | Snow |
|---|---|---|---|---|---|---|---|
| 1778001020 | 26.67° C | 54% | 1018 hPa | 0 mm | - | 733 W/m² | - |
| 1778000717 | 26.67° C | 56% | 1018 hPa | 0 mm | - | 765 W/m² | - |
| 1778000413 | 27.22° C | 53% | 1018 hPa | 0 mm | - | 167 W/m² | - |
| 1778000108 | 27.78° C | 55% | 1018 hPa | 0 mm | - | 684 W/m² | - |
| 1777999804 | 26.67° C | 58% | 1018.1 hPa | 0 mm | - | 725 W/m² | - |
| 1777999500 | 26.11° C | 57% | 1018.4 hPa | 0 mm | - | 740 W/m² | - |
| 1777999199 | 26.11° C | 58% | 1018.5 hPa | 0 mm | - | 340 W/m² | - |
| 1777998897 | 26.11° C | 58% | 1018.6 hPa | 0 mm | - | 747 W/m² | - |
| 1777998596 | 26.11° C | 57% | 1018.7 hPa | 0 mm | - | 712 W/m² | - |
| 1777998291 | 26.67° C | 55% | 1018.6 hPa | 0 mm | - | 714 W/m² | - |
| 1777997988 | 26.11° C | 58% | 1018.6 hPa | 0 mm | - | 714 W/m² | - |
| 1777997685 | 26.11° C | 60% | 1018.6 hPa | 0 mm | - | 715 W/m² | - |
| 1777997382 | 26.11° C | 59% | 1018.9 hPa | 0 mm | - | 787 W/m² | - |
| 1777997081 | 26.11° C | 58% | 1018.9 hPa | 0 mm | - | 754 W/m² | - |
| 1777996776 | 25.56° C | 58% | 1018.9 hPa | 0 mm | - | 729 W/m² | - |
| 1777996473 | 26.11° C | 58% | 1018.8 hPa | 0 mm | - | 734 W/m² | - |
| 1777996170 | 25.56° C | 58% | 1018.8 hPa | 0 mm | - | 716 W/m² | - |
| 1777995866 | 25° C | 61% | 1019 hPa | 0 mm | - | 729 W/m² | - |
| 1777995562 | 25° C | 62% | 1018.8 hPa | 0 mm | - | 750 W/m² | - |
| 1777995259 | 25.56° C | 59% | 1018.8 hPa | 0 mm | - | 736 W/m² | - |
| 1777994950 | 25° C | 63% | 1018.9 hPa | 0 mm | - | 728 W/m² | - |
| 1777994647 | 25.56° C | 60% | 1018.9 hPa | 0 mm | - | 747 W/m² | - |
| 1777994342 | 25° C | 61% | 1018.7 hPa | 0 mm | - | 742 W/m² | - |
| 1777994039 | 25° C | 61% | 1018.8 hPa | 0 mm | - | 763 W/m² | - |
| 1777993735 | 24.44° C | 62% | 1018.9 hPa | 0 mm | - | 748 W/m² | - |
* Rain latest hour (hover to see other rain measurements)
** Current wind speed in m/s (hover to see current wind gust speed)